Time;durP1;ratioP1;P1;durP2;ratioP2;P2;SDS_P1;SDS_P2;PMS_P1;PMS_P2;Temp;Humidity;BMP_temperature;BMP_pressure;BME280_temperature;BME280_humidity;BME280_pressure;Samples;Min_cycle;Max_cycle;Signal;HPM_P1;HPM_P2
2023/01/01 00:02:10;;;;;;;18.90;9.55;;;;;;;;;;6228914;28;20060;-64
2023/01/01 00:05:10;;;;;;;22.52;10.73;;;;;;;;;;6224217;28;20049;-64
2023/01/01 00:08:11;;;;;;;32.35;13.23;;;;;;;;;;6228206;28;20140;-64
2023/01/01 00:11:11;;;;;;;22.88;10.00;;;;;;;;;;6227445;28;20628;-65
2023/01/01 00:14:12;;;;;;;24.45;11.57;;;;;;;;;;6226305;28;20615;-65
2023/01/01 00:17:13;;;;;;;26.40;13.30;;;;;;;;;;6228005;28;20045;-64
2023/01/01 00:20:14;;;;;;;25.38;11.80;;;;;;;;;;6229687;28;20431;-64
2023/01/01 00:23:14;;;;;;;28.20;11.80;;;;;;;;;;6226729;28;20056;-64
2023/01/01 00:26:16;;;;;;;25.35;12.02;;;;;;;;;;6227146;28;20858;-64
2023/01/01 00:29:17;;;;;;;26.02;12.65;;;;;;;;;;6227986;28;20625;-65
2023/01/01 00:32:17;;;;;;;27.73;11.98;;;;;;;;;;6227496;28;20669;-65
2023/01/01 00:35:18;;;;;;;27.30;13.82;;;;;;;;;;6226543;28;20969;-65
2023/01/01 00:38:19;;;;;;;26.90;11.82;;;;;;;;;;6226748;28;20049;-65
2023/01/01 00:41:21;;;;;;;31.67;13.32;;;;;;;;;;6227881;28;20045;-64
2023/01/01 00:44:21;;;;;;;39.63;15.90;;;;;;;;;;6224620;28;20042;-66
2023/01/01 00:47:22;;;;;;;33.65;12.40;;;;;;;;;;6226721;28;20045;-65
2023/01/01 00:50:23;;;;;;;31.00;11.88;;;;;;;;;;6228729;28;20052;-65
2023/01/01 00:53:24;;;;;;;32.33;12.13;;;;;;;;;;6222836;28;20047;-65
2023/01/01 00:56:25;;;;;;;27.48;11.98;;;;;;;;;;6228729;28;20111;-65
2023/01/01 00:59:25;;;;;;;23.17;11.80;;;;;;;;;;6227615;28;20052;-65
2023/01/01 01:02:26;;;;;;;25.63;13.18;;;;;;;;;;6223380;28;20187;-66
2023/01/01 01:05:26;;;;;;;27.88;15.20;;;;;;;;;;6226731;28;20076;-65
2023/01/01 01:08:34;;;;;;;30.52;12.63;;;;;;;;;;6228061;28;20049;-65
2023/01/01 01:11:34;;;;;;;29.42;12.60;;;;;;;;;;6227025;28;20056;-65
2023/01/01 01:14:35;;;;;;;26.27;13.02;;;;;;;;;;6221477;28;20041;-64
2023/01/01 01:17:37;;;;;;;25.80;11.95;;;;;;;;;;6222484;28;20053;-65
2023/01/01 01:20:37;;;;;;;27.27;13.13;;;;;;;;;;6224757;28;20049;-64
2023/01/01 01:23:38;;;;;;;28.08;13.90;;;;;;;;;;6224248;28;20056;-64
2023/01/01 01:26:39;;;;;;;26.98;12.15;;;;;;;;;;6226141;28;20533;-65
2023/01/01 01:29:40;;;;;;;31.20;12.85;;;;;;;;;;6228207;28;20057;-66
2023/01/01 01:32:41;;;;;;;26.75;13.15;;;;;;;;;;6229476;28;20175;-65
2023/01/01 01:35:49;;;;;;;24.30;12.40;;;;;;;;;;6233920;28;20140;-65
2023/01/01 01:38:50;;;;;;;26.75;12.75;;;;;;;;;;6235240;28;20632;-65
2023/01/01 01:41:51;;;;;;;33.67;13.05;;;;;;;;;;6229404;28;20049;-65
2023/01/01 01:44:55;;;;;;;28.02;12.73;;;;;;;;;;6225075;28;20099;-66
2023/01/01 01:47:58;;;;;;;28.52;13.32;;;;;;;;;;6223829;28;20131;-65
2023/01/01 01:50:59;;;;;;;31.15;13.52;;;;;;;;;;6223231;28;20479;-65
2023/01/01 01:54:04;;;;;;;27.20;12.52;;;;;;;;;;6221126;28;20056;-64
2023/01/01 01:57:08;;;;;;;27.27;12.77;;;;;;;;;;6225968;28;20063;-65
2023/01/01 02:00:09;;;;;;;29.48;13.77;;;;;;;;;;6223965;28;20967;-65
2023/01/01 02:03:21;;;;;;;29.17;13.65;;;;;;;;;;6220560;28;20037;-65
2023/01/01 02:06:22;;;;;;;28.88;13.60;;;;;;;;;;6223592;28;20049;-65
2023/01/01 02:09:23;;;;;;;27.85;12.50;;;;;;;;;;6223583;28;20423;-65
2023/01/01 02:12:25;;;;;;;24.80;11.73;;;;;;;;;;6224850;28;20053;-66
2023/01/01 02:15:34;;;;;;;23.80;12.23;;;;;;;;;;6221334;28;20120;-65
2023/01/01 02:18:39;;;;;;;24.98;12.70;;;;;;;;;;6222606;28;20063;-65
2023/01/01 02:22:06;;;;;;;21.98;11.77;;;;;;;;;;6224617;28;20056;-64
2023/01/01 02:25:42;;;;;;;23.75;10.52;;;;;;;;;;6223293;28;20049;-65
2023/01/01 02:28:48;;;;;;;27.10;10.45;;;;;;;;;;6230367;28;20412;-65
2023/01/01 02:32:09;;;;;;;24.40;10.07;;;;;;;;;;6228225;28;20048;-65
2023/01/01 02:35:37;;;;;;;20.83;9.98;;;;;;;;;;6223550;28;20061;-66
2023/01/01 02:38:45;;;;;;;20.00;9.98;;;;;;;;;;6230024;28;20064;-65
2023/01/01 02:41:49;;;;;;;20.92;9.60;;;;;;;;;;6229115;28;20044;-65
2023/01/01 02:44:53;;;;;;;20.48;9.85;;;;;;;;;;6225080;28;20056;-64
2023/01/01 02:47:54;;;;;;;22.08;10.18;;;;;;;;;;6230681;28;20176;-65
2023/01/01 02:50:59;;;;;;;19.37;9.20;;;;;;;;;;6225083;28;20427;-66
2023/01/01 02:54:11;;;;;;;20.60;9.13;;;;;;;;;;6226704;28;20296;-65
2023/01/01 02:57:11;;;;;;;19.17;9.05;;;;;;;;;;6228280;28;20379;-65
2023/01/01 03:00:26;;;;;;;18.80;8.40;;;;;;;;;;6228934;28;20041;-64
2023/01/01 03:03:53;;;;;;;18.98;8.48;;;;;;;;;;6223113;28;21002;-65
2023/01/01 03:07:13;;;;;;;18.98;8.30;;;;;;;;;;6228877;28;20531;-67
2023/01/01 03:10:18;;;;;;;16.48;6.85;;;;;;;;;;6227253;28;20103;-64
2023/01/01 03:13:31;;;;;;;14.05;7.00;;;;;;;;;;6225150;28;20045;-65
2023/01/01 03:16:37;;;;;;;14.27;7.00;;;;;;;;;;6229201;28;20066;-66
2023/01/01 03:19:41;;;;;;;12.77;6.80;;;;;;;;;;6228077;28;20340;-65
2023/01/01 03:22:44;;;;;;;12.48;6.03;;;;;;;;;;6231411;28;20671;-65
2023/01/01 03:25:49;;;;;;;12.98;6.38;;;;;;;;;;6233630;28;20057;-65
2023/01/01 03:28:54;;;;;;;12.45;6.10;;;;;;;;;;6228431;28;20057;-65
2023/01/01 03:31:58;;;;;;;16.05;5.57;;;;;;;;;;6231767;28;20389;-67
2023/01/01 03:34:58;;;;;;;14.32;5.70;;;;;;;;;;6245815;28;20527;-66
2023/01/01 03:38:02;;;;;;;11.20;5.43;;;;;;;;;;6246531;28;20041;-67
2023/01/01 03:41:13;;;;;;;12.20;5.90;;;;;;;;;;6247940;28;20056;-67
2023/01/01 03:44:17;;;;;;;11.70;5.68;;;;;;;;;;6238879;28;20803;-67
2023/01/01 03:47:19;;;;;;;12.27;5.50;;;;;;;;;;6235196;28;20447;-66
2023/01/01 03:50:27;;;;;;;12.98;5.45;;;;;;;;;;6241301;28;20045;-67
2023/01/01 03:53:42;;;;;;;10.95;5.50;;;;;;;;;;6242451;28;20048;-68
2023/01/01 03:56:52;;;;;;;11.60;5.45;;;;;;;;;;6243258;28;20049;-68
2023/01/01 04:00:10;;;;;;;10.73;5.07;;;;;;;;;;6244338;28;20092;-67
2023/01/01 04:03:23;;;;;;;15.88;6.80;;;;;;;;;;6244930;28;20080;-68
2023/01/01 04:06:24;;;;;;;12.82;5.47;;;;;;;;;;6245096;28;20052;-68
2023/01/01 04:09:31;;;;;;;14.02;6.38;;;;;;;;;;6242948;28;20140;-67
2023/01/01 04:12:31;;;;;;;14.25;6.78;;;;;;;;;;6243644;28;20053;-67
2023/01/01 04:15:34;;;;;;;16.05;7.60;;;;;;;;;;6243041;28;20118;-66
2023/01/01 04:18:35;;;;;;;15.77;7.68;;;;;;;;;;6243719;28;20048;-68
2023/01/01 04:21:35;;;;;;;15.95;8.32;;;;;;;;;;6265507;28;20976;-67
2023/01/01 04:24:36;;;;;;;16.77;7.47;;;;;;;;;;6243016;28;20048;-68
2023/01/01 04:27:39;;;;;;;18.30;8.30;;;;;;;;;;6241430;28;20045;-68
2023/01/01 04:30:40;;;;;;;17.40;7.72;;;;;;;;;;6243143;28;20060;-67
2023/01/01 04:33:41;;;;;;;15.25;7.20;;;;;;;;;;6243575;28;20833;-68
2023/01/01 04:36:41;;;;;;;17.80;7.97;;;;;;;;;;6242974;28;20047;-68
2023/01/01 04:39:42;;;;;;;14.18;7.30;;;;;;;;;;6239225;28;20053;-68
2023/01/01 04:42:43;;;;;;;15.52;7.47;;;;;;;;;;6247623;28;20076;-68
2023/01/01 04:45:57;;;;;;;14.13;7.30;;;;;;;;;;6257823;28;20053;-66
2023/01/01 04:48:57;;;;;;;16.02;8.02;;;;;;;;;;6256402;28;20065;-67
2023/01/01 04:51:58;;;;;;;14.70;7.50;;;;;;;;;;6245390;28;20484;-68
2023/01/01 04:54:58;;;;;;;15.38;7.85;;;;;;;;;;6242906;28;20070;-67
2023/01/01 04:57:59;;;;;;;15.88;7.63;;;;;;;;;;6243518;28;20041;-68
2023/01/01 05:01:00;;;;;;;19.63;8.35;;;;;;;;;;6243571;28;20088;-67
2023/01/01 05:04:01;;;;;;;15.43;7.45;;;;;;;;;;6241353;28;20076;-67
2023/01/01 05:07:01;;;;;;;16.85;8.30;;;;;;;;;;6239817;28;20049;-68
2023/01/01 05:10:02;;;;;;;19.23;7.97;;;;;;;;;;6243321;28;20143;-67
2023/01/01 05:13:06;;;;;;;15.23;7.57;;;;;;;;;;6247237;28;20488;-67
2023/01/01 05:16:10;;;;;;;15.60;7.03;;;;;;;;;;6242347;28;20041;-67
2023/01/01 05:19:10;;;;;;;16.17;7.45;;;;;;;;;;6243412;28;20072;-68
2023/01/01 05:22:11;;;;;;;14.25;6.35;;;;;;;;;;6244297;28;20060;-67
2023/01/01 05:25:12;;;;;;;18.90;7.00;;;;;;;;;;6241239;28;20038;-67
2023/01/01 05:28:13;;;;;;;13.35;7.00;;;;;;;;;;6241725;28;21147;-68
2023/01/01 05:31:19;;;;;;;16.25;7.25;;;;;;;;;;6245410;28;20045;-68
2023/01/01 05:34:20;;;;;;;15.13;7.40;;;;;;;;;;6241407;28;20060;-68
2023/01/01 05:37:20;;;;;;;16.20;7.53;;;;;;;;;;6243631;28;20622;-68
2023/01/01 05:40:21;;;;;;;17.58;7.50;;;;;;;;;;6244350;28;20088;-68
2023/01/01 05:43:22;;;;;;;17.15;7.60;;;;;;;;;;6245389;28;20041;-67
2023/01/01 05:46:24;;;;;;;15.00;7.15;;;;;;;;;;6242231;28;20037;-68
2023/01/01 05:49:24;;;;;;;15.05;7.43;;;;;;;;;;6246233;28;20132;-66
2023/01/01 05:52:25;;;;;;;18.48;7.28;;;;;;;;;;6243852;28;20103;-68
2023/01/01 05:55:26;;;;;;;14.30;7.68;;;;;;;;;;6240206;28;20076;-67
2023/01/01 05:58:28;;;;;;;19.17;8.40;;;;;;;;;;6242990;28;20048;-68
2023/01/01 06:01:30;;;;;;;16.75;7.75;;;;;;;;;;6246735;28;20051;-68
2023/01/01 06:04:31;;;;;;;18.38;8.05;;;;;;;;;;6268498;28;20053;-67
2023/01/01 06:07:31;;;;;;;16.38;7.13;;;;;;;;;;6256653;28;20103;-68
2023/01/01 06:10:32;;;;;;;20.48;8.13;;;;;;;;;;6251280;28;20049;-67
2023/01/01 06:13:33;;;;;;;17.42;8.13;;;;;;;;;;6243653;28;20119;-68
2023/01/01 06:16:34;;;;;;;16.20;7.53;;;;;;;;;;6238232;28;20136;-68
2023/01/01 06:19:34;;;;;;;14.93;7.25;;;;;;;;;;6244509;28;20046;-67
2023/01/01 06:22:36;;;;;;;15.13;6.97;;;;;;;;;;6248990;28;20053;-67
2023/01/01 06:25:36;;;;;;;18.43;7.33;;;;;;;;;;6247575;28;20103;-67
2023/01/01 06:28:38;;;;;;;16.60;7.20;;;;;;;;;;6239717;28;20662;-68
2023/01/01 06:31:38;;;;;;;13.93;6.67;;;;;;;;;;6248230;28;20114;-68
2023/01/01 06:34:39;;;;;;;15.27;7.78;;;;;;;;;;6240889;28;20119;-67
2023/01/01 06:37:40;;;;;;;17.02;7.25;;;;;;;;;;6239127;28;20053;-67
2023/01/01 06:40:40;;;;;;;15.07;7.28;;;;;;;;;;6245233;28;20119;-67
2023/01/01 06:43:43;;;;;;;14.65;7.35;;;;;;;;;;6228503;28;21399;-68
2023/01/01 06:46:43;;;;;;;17.55;7.85;;;;;;;;;;6252618;28;20511;-67
2023/01/01 06:49:44;;;;;;;17.05;7.95;;;;;;;;;;6245473;28;20049;-67
2023/01/01 06:52:46;;;;;;;16.65;7.30;;;;;;;;;;6246271;28;20059;-67
2023/01/01 06:55:48;;;;;;;18.88;8.30;;;;;;;;;;6244798;28;20052;-68
2023/01/01 06:58:48;;;;;;;17.23;7.75;;;;;;;;;;6242941;28;20427;-67
2023/01/01 07:01:49;;;;;;;16.02;7.88;;;;;;;;;;6246046;28;20049;-68
2023/01/01 07:04:49;;;;;;;13.82;7.32;;;;;;;;;;6250407;28;20570;-67
2023/01/01 07:07:50;;;;;;;17.65;7.57;;;;;;;;;;6245118;28;20048;-68
2023/01/01 07:10:50;;;;;;;15.57;7.47;;;;;;;;;;6246198;28;22314;-68
2023/01/01 07:13:51;;;;;;;13.07;7.40;;;;;;;;;;6245378;28;20049;-68
2023/01/01 07:16:52;;;;;;;16.98;9.77;;;;;;;;;;6244833;28;20038;-69
2023/01/01 07:19:52;;;;;;;14.20;7.30;;;;;;;;;;6247004;28;20045;-67
2023/01/01 07:22:53;;;;;;;17.65;7.03;;;;;;;;;;6249967;28;20095;-67
2023/01/01 07:25:54;;;;;;;14.38;6.90;;;;;;;;;;6245753;28;20108;-69
2023/01/01 07:28:56;;;;;;;15.53;6.90;;;;;;;;;;6245222;28;20053;-66
2023/01/01 07:31:56;;;;;;;14.55;6.47;;;;;;;;;;6241287;28;20298;-65
2023/01/01 07:34:57;;;;;;;15.57;7.18;;;;;;;;;;6251762;28;20693;-64
2023/01/01 07:37:57;;;;;;;14.00;6.13;;;;;;;;;;6262506;28;20534;-64
2023/01/01 07:40:58;;;;;;;13.63;6.93;;;;;;;;;;6269498;28;20466;-69
2023/01/01 07:43:59;;;;;;;11.68;6.30;;;;;;;;;;6268734;28;20053;-64
2023/01/01 07:47:18;;;;;;;13.27;6.30;;;;;;;;;;6268211;28;20139;-66
2023/01/01 07:50:19;;;;;;;13.35;5.97;;;;;;;;;;6268466;28;20045;-64
2023/01/01 07:53:20;;;;;;;15.10;6.28;;;;;;;;;;6268906;28;20037;-64
2023/01/01 07:56:21;;;;;;;10.98;5.60;;;;;;;;;;6268051;28;20056;-64
2023/01/01 07:59:21;;;;;;;13.88;6.57;;;;;;;;;;6268220;28;20060;-64
2023/01/01 08:02:22;;;;;;;11.50;5.90;;;;;;;;;;6268473;28;20411;-65
2023/01/01 08:05:23;;;;;;;11.85;5.70;;;;;;;;;;6267349;28;20515;-64
2023/01/01 08:08:23;;;;;;;12.80;6.10;;;;;;;;;;6268007;28;20045;-64
2023/01/01 08:11:24;;;;;;;11.93;6.00;;;;;;;;;;6262922;28;20131;-64
2023/01/01 08:14:24;;;;;;;12.50;5.60;;;;;;;;;;6258337;28;20630;-63
2023/01/01 08:17:25;;;;;;;13.55;6.30;;;;;;;;;;6257786;28;20041;-66
2023/01/01 08:20:28;;;;;;;17.73;6.70;;;;;;;;;;6249165;28;20034;-65
2023/01/01 08:23:29;;;;;;;12.52;6.18;;;;;;;;;;6260815;28;20053;-64
2023/01/01 08:26:32;;;;;;;13.85;6.10;;;;;;;;;;6266156;28;20049;-64
2023/01/01 08:29:33;;;;;;;14.05;6.30;;;;;;;;;;6256284;28;20055;-65
2023/01/01 08:32:33;;;;;;;13.85;6.40;;;;;;;;;;6263290;28;20049;-65
2023/01/01 08:35:39;;;;;;;12.32;6.68;;;;;;;;;;6253904;28;20095;-66
2023/01/01 08:38:39;;;;;;;13.48;6.55;;;;;;;;;;6237204;28;20061;-64
2023/01/01 08:41:40;;;;;;;12.05;6.18;;;;;;;;;;6257244;28;20401;-64
2023/01/01 08:44:40;;;;;;;13.93;6.38;;;;;;;;;;6256815;28;20050;-64
2023/01/01 08:47:42;;;;;;;15.38;7.05;;;;;;;;;;6262009;28;20101;-63
2023/01/01 08:50:43;;;;;;;13.23;6.37;;;;;;;;;;6266844;28;20502;-63
2023/01/01 08:53:44;;;;;;;15.15;6.13;;;;;;;;;;6266499;28;20051;-64
2023/01/01 08:56:44;;;;;;;15.45;6.75;;;;;;;;;;6262863;28;20485;-63
2023/01/01 08:59:45;;;;;;;13.07;6.35;;;;;;;;;;6256635;28;20041;-65
2023/01/01 09:02:46;;;;;;;15.77;6.47;;;;;;;;;;6267224;28;20048;-65
2023/01/01 09:05:46;;;;;;;13.25;6.07;;;;;;;;;;6267426;28;20423;-67
2023/01/01 09:08:47;;;;;;;12.15;5.60;;;;;;;;;;6266885;28;20140;-66
2023/01/01 09:12:02;;;;;;;13.45;5.93;;;;;;;;;;6249194;28;20562;-65
2023/01/01 09:15:04;;;;;;;12.23;5.75;;;;;;;;;;6250943;28;20056;-65
2023/01/01 09:18:05;;;;;;;15.87;6.37;;;;;;;;;;6266514;28;20489;-67
2023/01/01 09:21:05;;;;;;;16.40;7.60;;;;;;;;;;6267742;28;20047;-66
2023/01/01 09:24:06;;;;;;;16.25;7.13;;;;;;;;;;6266960;28;20098;-68
2023/01/01 09:27:07;;;;;;;18.25;7.72;;;;;;;;;;6266386;28;20090;-67
2023/01/01 09:30:08;;;;;;;13.63;6.68;;;;;;;;;;6266835;28;20122;-64
2023/01/01 09:33:08;;;;;;;16.95;7.40;;;;;;;;;;6258356;28;20045;-68
2023/01/01 09:36:19;;;;;;;16.67;6.78;;;;;;;;;;6252739;28;20136;-69
2023/01/01 09:39:19;;;;;;;15.50;7.38;;;;;;;;;;6253173;28;20488;-67
2023/01/01 09:42:20;;;;;;;16.25;7.40;;;;;;;;;;6267367;28;20168;-69
2023/01/01 09:45:27;;;;;;;14.18;7.25;;;;;;;;;;6266180;28;20075;-70
2023/01/01 09:48:30;;;;;;;16.65;7.18;;;;;;;;;;6265409;28;20133;-68
2023/01/01 09:51:34;;;;;;;14.38;7.03;;;;;;;;;;6266167;28;20060;-66
2023/01/01 09:54:51;;;;;;;13.43;6.22;;;;;;;;;;6266789;28;20055;-66
2023/01/01 09:57:53;;;;;;;12.32;5.95;;;;;;;;;;6266726;28;20049;-66
2023/01/01 10:00:56;;;;;;;14.82;6.93;;;;;;;;;;6256093;28;20049;-66
2023/01/01 10:04:25;;;;;;;15.48;6.80;;;;;;;;;;6264333;28;20060;-67
2023/01/01 10:07:39;;;;;;;11.15;5.75;;;;;;;;;;6242752;28;20159;-67
2023/01/01 10:11:10;;;;;;;15.90;6.85;;;;;;;;;;6254790;28;20480;-68
2023/01/01 10:14:25;;;;;;;16.48;6.60;;;;;;;;;;6239580;28;20110;-67
2023/01/01 10:17:35;;;;;;;12.93;6.38;;;;;;;;;;6241458;28;20054;-67
2023/01/01 10:20:41;;;;;;;14.00;6.82;;;;;;;;;;6240572;28;20036;-67
2023/01/01 10:23:50;;;;;;;15.07;7.03;;;;;;;;;;6241711;28;20408;-67
2023/01/01 10:26:54;;;;;;;12.23;5.78;;;;;;;;;;6244435;28;20052;-67
2023/01/01 10:29:55;;;;;;;13.25;6.53;;;;;;;;;;6242917;28;20049;-67
2023/01/01 10:32:57;;;;;;;11.90;5.95;;;;;;;;;;6243850;28;20515;-66
2023/01/01 10:35:58;;;;;;;9.67;5.40;;;;;;;;;;6242290;28;20378;-63
2023/01/01 10:38:58;;;;;;;15.02;6.50;;;;;;;;;;6244077;28;20388;-65
2023/01/01 10:42:01;;;;;;;12.63;5.65;;;;;;;;;;6244098;28;20045;-67
2023/01/01 10:45:04;;;;;;;12.80;6.15;;;;;;;;;;6247365;28;20046;-65
2023/01/01 10:48:25;;;;;;;13.85;6.05;;;;;;;;;;6244296;28;20045;-65
2023/01/01 10:51:25;;;;;;;10.23;5.50;;;;;;;;;;6245268;28;20539;-66
2023/01/01 10:54:34;;;;;;;10.38;5.75;;;;;;;;;;6246169;28;20038;-65
2023/01/01 10:57:37;;;;;;;9.57;5.22;;;;;;;;;;6245084;28;20140;-67
2023/01/01 11:00:38;;;;;;;10.40;4.53;;;;;;;;;;6261017;28;20052;-65
2023/01/01 11:03:52;;;;;;;11.38;4.88;;;;;;;;;;6263224;28;20500;-65
2023/01/01 11:06:52;;;;;;;11.30;5.15;;;;;;;;;;6244780;28;20052;-64
2023/01/01 11:09:59;;;;;;;10.60;4.90;;;;;;;;;;6243903;28;20053;-68
2023/01/01 11:12:59;;;;;;;12.88;5.25;;;;;;;;;;6246418;28;20087;-67
2023/01/01 11:16:10;;;;;;;8.95;4.70;;;;;;;;;;6241743;28;20037;-65
2023/01/01 11:19:19;;;;;;;8.30;4.60;;;;;;;;;;6244955;28;20047;-66
2023/01/01 11:22:40;;;;;;;11.65;5.03;;;;;;;;;;6243948;28;20202;-65
2023/01/01 11:25:56;;;;;;;12.63;5.63;;;;;;;;;;6245115;28;20071;-68
2023/01/01 11:29:01;;;;;;;10.65;5.18;;;;;;;;;;6245496;28;20488;-67
2023/01/01 11:32:07;;;;;;;12.55;5.65;;;;;;;;;;6242176;28;20094;-66
2023/01/01 11:35:17;;;;;;;9.98;5.15;;;;;;;;;;6244877;28;20052;-66
2023/01/01 11:38:21;;;;;;;11.85;5.80;;;;;;;;;;6245021;28;20485;-68
2023/01/01 11:41:21;;;;;;;11.18;5.13;;;;;;;;;;6243546;28;20055;-67
2023/01/01 11:44:26;;;;;;;11.48;4.93;;;;;;;;;;6244561;28;20049;-65
2023/01/01 11:47:36;;;;;;;10.35;4.97;;;;;;;;;;6243050;28;20044;-66
2023/01/01 11:50:47;;;;;;;12.93;5.68;;;;;;;;;;6244798;28;20060;-66
2023/01/01 11:53:48;;;;;;;10.70;4.82;;;;;;;;;;6259891;28;20400;-66
2023/01/01 11:56:53;;;;;;;11.20;5.18;;;;;;;;;;6243179;28;20070;-67
2023/01/01 12:00:00;;;;;;;10.63;4.82;;;;;;;;;;6243053;28;20722;-67
2023/01/01 12:03:20;;;;;;;11.48;5.72;;;;;;;;;;6241580;28;20050;-68
2023/01/01 12:06:33;;;;;;;12.25;6.85;;;;;;;;;;6239259;28;20785;-65
2023/01/01 12:09:41;;;;;;;11.65;6.45;;;;;;;;;;6243374;28;20045;-68
2023/01/01 12:12:47;;;;;;;14.15;7.97;;;;;;;;;;6244560;28;20045;-66
2023/01/01 12:15:53;;;;;;;14.05;7.03;;;;;;;;;;6239877;28;20053;-69
2023/01/01 12:19:09;;;;;;;12.00;6.53;;;;;;;;;;6241398;28;20126;-68
2023/01/01 12:22:16;;;;;;;11.57;5.43;;;;;;;;;;6244685;28;20053;-69
2023/01/01 12:25:18;;;;;;;10.98;5.90;;;;;;;;;;6243235;28;20051;-67
2023/01/01 12:28:51;;;;;;;13.55;7.43;;;;;;;;;;6243591;28;20045;-68
2023/01/01 12:32:02;;;;;;;17.48;9.52;;;;;;;;;;6242283;28;20650;-67
2023/01/01 12:35:13;;;;;;;16.48;7.47;;;;;;;;;;6244748;28;20053;-68
2023/01/01 12:39:01;;;;;;;15.13;8.55;;;;;;;;;;6244344;28;20049;-69
2023/01/01 12:42:16;;;;;;;14.43;6.43;;;;;;;;;;6227564;28;21064;-69
2023/01/01 12:45:51;;;;;;;12.00;5.85;;;;;;;;;;6243725;28;20439;-66
2023/01/01 12:49:22;;;;;;;11.55;5.93;;;;;;;;;;6260448;28;20055;-65
2023/01/01 12:52:48;;;;;;;12.55;6.03;;;;;;;;;;6236585;28;20059;-65
2023/01/01 12:55:57;;;;;;;11.77;5.78;;;;;;;;;;6245391;28;20041;-66
2023/01/01 12:59:13;;;;;;;10.68;5.40;;;;;;;;;;6243537;28;20862;-68
2023/01/01 13:02:25;;;;;;;59.78;27.35;;;;;;;;;;6241531;28;20203;-67
2023/01/01 13:05:40;;;;;;;18.40;9.32;;;;;;;;;;6240637;28;20049;-67
2023/01/01 13:08:42;;;;;;;15.32;8.13;;;;;;;;;;6258958;28;20151;-67
2023/01/01 13:11:46;;;;;;;21.85;13.77;;;;;;;;;;6258818;28;20473;-68
2023/01/01 13:14:49;;;;;;;13.75;5.93;;;;;;;;;;6263011;28;20045;-68
2023/01/01 13:17:52;;;;;;;12.95;6.05;;;;;;;;;;6267070;28;20072;-69
2023/01/01 13:21:02;;;;;;;10.55;5.50;;;;;;;;;;6266817;28;20387;-67
2023/01/01 13:24:16;;;;;;;13.52;5.85;;;;;;;;;;6261376;28;20051;-66
2023/01/01 13:27:55;;;;;;;14.10;5.30;;;;;;;;;;6263914;28;20035;-67
2023/01/01 13:30:56;;;;;;;14.13;5.88;;;;;;;;;;6266790;28;20476;-69
2023/01/01 13:34:34;;;;;;;10.50;5.90;;;;;;;;;;6254959;28;20182;-68
2023/01/01 13:37:42;;;;;;;11.65;5.30;;;;;;;;;;6253606;28;20128;-68
2023/01/01 13:40:48;;;;;;;10.77;4.80;;;;;;;;;;6265596;28;20128;-68
2023/01/01 13:43:48;;;;;;;11.27;5.22;;;;;;;;;;6266069;28;20049;-68
2023/01/01 13:47:19;;;;;;;11.57;5.05;;;;;;;;;;6248461;28;20053;-67
2023/01/01 13:50:40;;;;;;;28.30;15.43;;;;;;;;;;6241848;28;20103;-67
2023/01/01 13:54:19;;;;;;;11.75;5.28;;;;;;;;;;6245955;28;20041;-68
2023/01/01 13:57:22;;;;;;;13.18;6.70;;;;;;;;;;6246466;28;20045;-68
2023/01/01 14:00:27;;;;;;;14.30;7.28;;;;;;;;;;6262228;28;20044;-67
2023/01/01 14:03:32;;;;;;;9.88;4.88;;;;;;;;;;6258830;28;20047;-68
2023/01/01 14:06:39;;;;;;;10.45;4.65;;;;;;;;;;6260143;28;20044;-68
2023/01/01 14:09:40;;;;;;;10.35;4.75;;;;;;;;;;6260515;28;20148;-67
2023/01/01 14:12:40;;;;;;;9.23;4.40;;;;;;;;;;6235361;28;20083;-68
2023/01/01 14:15:53;;;;;;;7.80;4.43;;;;;;;;;;6228368;28;20056;-68
2023/01/01 14:19:00;;;;;;;;;;;;;;;;;;6236679;28;20068;-66
2023/01/01 14:22:05;;;;;;;9.60;4.55;;;;;;;;;;6233092;28;19931;-66
2023/01/01 14:25:14;;;;;;;15.65;4.65;;;;;;;;;;6238836;28;20051;-65
2023/01/01 14:28:20;;;;;;;9.30;4.50;;;;;;;;;;6240937;28;20136;-67
2023/01/01 14:31:27;;;;;;;9.60;4.45;;;;;;;;;;6241321;28;20056;-67
2023/01/01 14:34:30;;;;;;;9.27;4.60;;;;;;;;;;6237034;28;20149;-68
2023/01/01 14:37:31;;;;;;;12.10;4.55;;;;;;;;;;6238397;28;20045;-66
2023/01/01 14:40:33;;;;;;;24.25;11.15;;;;;;;;;;6237049;28;20140;-67
2023/01/01 14:43:38;;;;;;;17.48;9.13;;;;;;;;;;6236736;28;20053;-67
2023/01/01 14:46:48;;;;;;;15.65;7.03;;;;;;;;;;6238186;28;20649;-66
2023/01/01 14:49:50;;;;;;;16.58;8.43;;;;;;;;;;6240295;28;20075;-66
2023/01/01 14:52:55;;;;;;;13.35;7.15;;;;;;;;;;6238445;28;20050;-66
2023/01/01 14:55:58;;;;;;;11.88;5.82;;;;;;;;;;6240183;28;20049;-66
2023/01/01 14:59:08;;;;;;;13.00;5.28;;;;;;;;;;6242447;28;20685;-65
2023/01/01 15:02:20;;;;;;;12.68;6.05;;;;;;;;;;6237399;28;20064;-66
2023/01/01 15:05:28;;;;;;;13.93;5.90;;;;;;;;;;6234404;28;20060;-66
2023/01/01 15:08:29;;;;;;;14.02;6.07;;;;;;;;;;6231029;28;20037;-66
2023/01/01 15:11:30;;;;;;;13.73;5.95;;;;;;;;;;6226672;28;20050;-67
2023/01/01 15:14:34;;;;;;;12.95;6.13;;;;;;;;;;6226159;28;20450;-66
2023/01/01 15:17:45;;;;;;;32.90;12.93;;;;;;;;;;6228430;28;20129;-65
2023/01/01 15:20:52;;;;;;;102.63;36.97;;;;;;;;;;6229895;28;20053;-66
2023/01/01 15:24:29;;;;;;;17.52;7.82;;;;;;;;;;6227087;28;20057;-66
2023/01/01 15:27:33;;;;;;;22.17;12.93;;;;;;;;;;6234359;28;20048;-65
2023/01/01 15:30:35;;;;;;;18.48;8.93;;;;;;;;;;6236159;28;20053;-64
2023/01/01 15:33:35;;;;;;;18.52;7.80;;;;;;;;;;6234090;28;20064;-65
2023/01/01 15:36:36;;;;;;;15.02;7.28;;;;;;;;;;6235188;28;20057;-64
2023/01/01 15:39:49;;;;;;;15.82;7.38;;;;;;;;;;6233635;28;20085;-65
2023/01/01 15:42:56;;;;;;;17.20;7.95;;;;;;;;;;6232209;28;20092;-66
2023/01/01 15:46:20;;;;;;;17.48;7.13;;;;;;;;;;6234867;28;20522;-66
2023/01/01 15:49:27;;;;;;;13.40;7.15;;;;;;;;;;6233628;28;20073;-66
2023/01/01 15:52:27;;;;;;;16.45;7.25;;;;;;;;;;6228825;28;20542;-65
2023/01/01 15:55:32;;;;;;;14.52;7.90;;;;;;;;;;6230506;28;20049;-65
2023/01/01 15:58:40;;;;;;;14.45;7.70;;;;;;;;;;6231657;28;20030;-64
2023/01/01 16:01:42;;;;;;;16.92;7.60;;;;;;;;;;6232910;28;20180;-66
2023/01/01 16:04:48;;;;;;;17.20;7.90;;;;;;;;;;6232889;28;20041;-66
2023/01/01 16:08:03;;;;;;;17.42;7.63;;;;;;;;;;6236061;28;20298;-67
2023/01/01 16:11:04;;;;;;;18.55;8.45;;;;;;;;;;6231136;28;20053;-65
2023/01/01 16:14:06;;;;;;;19.98;9.82;;;;;;;;;;6229202;28;20404;-64
2023/01/01 16:17:15;;;;;;;47.90;14.98;;;;;;;;;;6233125;28;20049;-62
2023/01/01 16:20:20;;;;;;;29.52;11.50;;;;;;;;;;6235240;28;20681;-62
2023/01/01 16:23:21;;;;;;;20.70;9.90;;;;;;;;;;6231472;28;20472;-62
2023/01/01 16:26:21;;;;;;;20.50;9.57;;;;;;;;;;6236324;28;20060;-62
2023/01/01 16:29:22;;;;;;;19.80;9.43;;;;;;;;;;6234659;28;20038;-63
2023/01/01 16:32:22;;;;;;;23.92;12.90;;;;;;;;;;6234723;28;20073;-63
2023/01/01 16:35:23;;;;;;;18.85;10.25;;;;;;;;;;6234147;28;20064;-63
2023/01/01 16:38:26;;;;;;;24.27;11.27;;;;;;;;;;6233978;28;20082;-63
2023/01/01 16:41:29;;;;;;;24.42;10.20;;;;;;;;;;6221502;28;20045;-62
2023/01/01 16:44:31;;;;;;;19.92;10.20;;;;;;;;;;6227668;28;20485;-61
2023/01/01 16:47:32;;;;;;;21.83;10.80;;;;;;;;;;6227689;28;20053;-61
2023/01/01 16:50:32;;;;;;;22.60;10.45;;;;;;;;;;6229475;28;20061;-62
2023/01/01 16:53:35;;;;;;;23.27;10.52;;;;;;;;;;6224642;28;20451;-64
2023/01/01 16:56:36;;;;;;;21.25;10.60;;;;;;;;;;6230478;28;20053;-62
2023/01/01 16:59:37;;;;;;;25.13;10.98;;;;;;;;;;6231466;28;20079;-63
2023/01/01 17:02:37;;;;;;;27.98;13.95;;;;;;;;;;6228211;28;20049;-62
2023/01/01 17:05:38;;;;;;;29.17;13.45;;;;;;;;;;6228371;28;20477;-62
2023/01/01 17:08:40;;;;;;;24.53;12.80;;;;;;;;;;6227846;28;20124;-61
2023/01/01 17:11:40;;;;;;;30.92;15.32;;;;;;;;;;6228726;28;20720;-64
2023/01/01 17:14:41;;;;;;;34.47;17.45;;;;;;;;;;6228843;28;20139;-62
2023/01/01 17:17:42;;;;;;;37.80;21.27;;;;;;;;;;6229365;28;20088;-62
2023/01/01 17:20:42;;;;;;;38.50;18.20;;;;;;;;;;6228589;28;20067;-63
2023/01/01 17:23:43;;;;;;;30.83;15.85;;;;;;;;;;6225298;28;20133;-61
2023/01/01 17:26:44;;;;;;;33.53;16.48;;;;;;;;;;6227844;28;20065;-62
2023/01/01 17:29:45;;;;;;;41.75;15.52;;;;;;;;;;6228707;28;20049;-62
2023/01/01 17:32:46;;;;;;;40.55;20.48;;;;;;;;;;6227568;28;20222;-62
2023/01/01 17:35:46;;;;;;;55.38;26.27;;;;;;;;;;6229537;28;20136;-61
2023/01/01 17:38:47;;;;;;;38.05;19.40;;;;;;;;;;6230095;28;20144;-64
2023/01/01 17:41:48;;;;;;;39.80;18.50;;;;;;;;;;6226508;28;20523;-63
2023/01/01 17:44:49;;;;;;;37.53;17.92;;;;;;;;;;6229860;28;20058;-63
2023/01/01 17:47:49;;;;;;;37.90;16.25;;;;;;;;;;6230958;28;20522;-63
2023/01/01 17:50:50;;;;;;;32.90;15.52;;;;;;;;;;6229071;28;20037;-62
2023/01/01 17:53:51;;;;;;;29.30;13.38;;;;;;;;;;6227081;28;20041;-63
2023/01/01 17:56:52;;;;;;;34.35;15.57;;;;;;;;;;6230471;28;20496;-63
2023/01/01 17:59:57;;;;;;;35.42;16.20;;;;;;;;;;6234377;28;20057;-63
2023/01/01 18:02:58;;;;;;;38.00;16.00;;;;;;;;;;6230187;28;20099;-63
2023/01/01 18:05:59;;;;;;;40.20;18.90;;;;;;;;;;6234005;28;20045;-63
2023/01/01 18:09:03;;;;;;;34.65;16.25;;;;;;;;;;6235003;28;20480;-61